WetterOnline ( https://www.wetteronline.de )

Wetter aktuell Freiburg im Breisgau

Aktuelles Wetter: Freiburg/Flugplatz (236m)

6-stündlich | Neueste Meldungen
Ortszeit Temperatur Wetter
Fr, 12.04. 14:00 20.3° C leicht bewölkt
Fr, 12.04. 8:00 5.6° C bedeckt
Fr, 12.04. 2:00 6.2° C wolkig
Do, 11.04. 20:00 14.7° C fast wolkenlos
Do, 11.04. 14:00 16.0° C wolkenlos
Do, 11.04. 8:00 4.0° C wolkenlos
Do, 11.04. 2:00 3.9° C wolkenlos
Mi, 10.04. 20:00 12.5° C wolkenlos
Ortszeit Temperatur Wetter
Fr, 12.04. 17:30 21.2° C wolkig
Fr, 12.04. 17:20 21.2° C wolkig
Fr, 12.04. 17:10 21.3° C bedeckt
Fr, 12.04. 17:00 21.2° C leicht bewölkt
Fr, 12.04. 16:50 21.2° C wolkig
Fr, 12.04. 16:40 21.1° C bedeckt
Fr, 12.04. 16:30 21.4° C wolkig
Fr, 12.04. 16:00 21.0° C leicht bewölkt
Fr, 12.04. 15:30 20.7° C wolkig
Fr, 12.04. 15:00 20.5° C leicht bewölkt
Fr, 12.04. 14:30 20.7° C wolkig
Ortszeit Relative Feuchte Sichtweite
Fr, 12.04. 14:00 40% 35 km
Fr, 12.04. 8:00 89% 30 km
Fr, 12.04. 2:00 91% 40 km
Do, 11.04. 20:00 49% 50 km
Do, 11.04. 14:00 46% 40 km
Do, 11.04. 8:00 83% 35 km
Do, 11.04. 2:00 88% 45 km
Mi, 10.04. 20:00 46% 50 km
Ortszeit Relative Feuchte Sichtweite
Fr, 12.04. 17:30 40% 40 km
Fr, 12.04. 17:20 40% -
Fr, 12.04. 17:10 42% -
Fr, 12.04. 17:00 40% 40 km
Fr, 12.04. 16:50 40% -
Fr, 12.04. 16:40 39% -
Fr, 12.04. 16:30 42% 35 km
Fr, 12.04. 16:00 39% 65 km
Fr, 12.04. 15:30 43% 35 km
Fr, 12.04. 15:00 39% 30 km
Fr, 12.04. 14:30 42% 60 km
Ortszeit Niederschlagsmenge Niederschlagsart
Fr, 12.04. 14:00 0.0 l/m2 in 6 Std. -
Fr, 12.04. 8:00 0.0 l/m2 in 12 Std. -
Fr, 12.04. 2:00 0.0 l/m2 in 6 Std. -
Do, 11.04. 20:00 0.0 l/m2 in 12 Std. -
Do, 11.04. 14:00 0.0 l/m2 in 6 Std. -
Do, 11.04. 8:00 0.0 l/m2 in 12 Std. -
Do, 11.04. 2:00 0.0 l/m2 in 6 Std. -
Mi, 10.04. 20:00 0.0 l/m2 in 12 Std. -
Ortszeit Niederschlagsmenge Niederschlagsart
Fr, 12.04. 17:30 0.0 l/m2 in 30 Min -
Fr, 12.04. 17:20 keine Meldung -
Fr, 12.04. 17:10 keine Meldung -
Fr, 12.04. 17:00 0.0 l/m2 in 1 Std. -
Fr, 12.04. 16:50 keine Meldung -
Fr, 12.04. 16:40 keine Meldung -
Fr, 12.04. 16:30 0.0 l/m2 in 30 Min -
Fr, 12.04. 16:00 0.0 l/m2 in 1 Std. -
Fr, 12.04. 15:30 0.0 l/m2 in 30 Min -
Fr, 12.04. 15:00 0.0 l/m2 in 1 Std. -
Fr, 12.04. 14:30 0.0 l/m2 in 30 Min -
Ortszeit Stärke Spitze Richtung
km/h Bft. km/h Grad Sektor
Fr, 12.04. 14:00 4 1 18 260° W
Fr, 12.04. 8:00 4 1 11 340° N
Fr, 12.04. 2:00 4 1 18 340° N
Do, 11.04. 20:00 4 1 25 360° N
Do, 11.04. 14:00 11 2 24 330° NW
Do, 11.04. 8:00 4 1 18 130° SO
Do, 11.04. 2:00 2 1 9 110° O
Mi, 10.04. 20:00 7 2 29 350° N
Ortszeit Stärke Spitze Richtung
km/h Bft. km/h Grad Sektor
Fr, 12.04. 17:30 7 2 17 320° NW
Fr, 12.04. 17:20 7 2 - 320° NW
Fr, 12.04. 17:10 9 2 - 320° NW
Fr, 12.04. 17:00 7 2 14 300° NW
Fr, 12.04. 16:50 7 2 - 300° NW
Fr, 12.04. 16:40 7 2 - 310° NW
Fr, 12.04. 16:30 7 2 14 320° NW
Fr, 12.04. 16:00 7 2 14 30° NO
Fr, 12.04. 15:30 7 2 14 330° NW
Fr, 12.04. 15:00 9 2 15 330° NW
Fr, 12.04. 14:30 4 1 11 170° S
Ortszeit Untergrenze Bedeckung Gattung
total tief tief mittel hoch
Fr, 12.04. 14:00 8400 m 7/8 0/8 - - -
Fr, 12.04. 8:00 5700 m 8/8 8/8 - - -
Fr, 12.04. 2:00 9000 m 8/8 0/8 - - -
Do, 11.04. 20:00 9000 m 2/8 0/8 - - -
Do, 11.04. 14:00 - 0/8 0/8 - - -
Do, 11.04. 8:00 - 0/8 0/8 - - -
Do, 11.04. 2:00 - 0/8 0/8 - - -
Mi, 10.04. 20:00 - 0/8 0/8 - - -
Ortszeit Bedeckungsgrad in Achtel und Wolkenuntergrenze
Fr, 12.04. 17:30 3(9000m) 8(10500m) 8(10500m)
Fr, 12.04. 17:20 3(9000m) 8(10500m) 8(10500m)
Fr, 12.04. 17:10 8
Fr, 12.04. 17:00 2(9000m) 8(9000m)
Fr, 12.04. 16:50 2(9000m) 8(9000m)
Fr, 12.04. 16:40 8
Fr, 12.04. 16:30 7(9000m) 8(10500m)
Fr, 12.04. 16:00 3(8100m) 8(10500m) 8(10500m)
Fr, 12.04. 15:30 5(8100m) 7(8700m) 8(10500m)
Fr, 12.04. 15:00 6(8100m) 7(10500m)
Fr, 12.04. 14:30 5(7800m) 6(8400m) 7(10500m)
Ortszeit Luftdruck NN (hPa) Tendenz (hPa in 3 Std.)
Fr, 12.04. 14:00 1032 - 1,1
Fr, 12.04. 8:00 1035 + 0,1
Fr, 12.04. 2:00 1035 + 0,4
Do, 11.04. 20:00 1033 + 0,1
Do, 11.04. 14:00 1034 - 0,1
Do, 11.04. 8:00 1035 + 1,2
Do, 11.04. 2:00 1034 + 0,4
Mi, 10.04. 20:00 1031 + 0,8
Ortszeit Luftdruck NN (hPa) Tendenz (hPa in 3 Std.)
Fr, 12.04. 17:30 1030 - 1,6
Fr, 12.04. 17:20 1030 keine Meldung
Fr, 12.04. 17:10 1030 keine Meldung
Fr, 12.04. 17:00 1030 - 1,7
Fr, 12.04. 16:50 1030 keine Meldung
Fr, 12.04. 16:40 1031 keine Meldung
Fr, 12.04. 16:30 1031 - 1,8
Fr, 12.04. 16:00 1031 - 1,9
Fr, 12.04. 15:30 1031 - 1,7
Fr, 12.04. 15:00 1032 - 1,7
Fr, 12.04. 14:30 1032 - 1,4
Ortszeit Schneehöhe (cm)
Fr, 12.04. 14:00 0
Fr, 12.04. 8:00 0
Fr, 12.04. 2:00 0
Do, 11.04. 20:00 0
Do, 11.04. 14:00 0
Do, 11.04. 8:00 0
Do, 11.04. 2:00 0
Mi, 10.04. 20:00 0
Ortszeit Schneehöhe (cm)
Fr, 12.04. 17:30 0
Fr, 12.04. 17:20 0
Fr, 12.04. 17:10 -
Fr, 12.04. 17:00 0
Fr, 12.04. 16:50 0
Fr, 12.04. 16:40 -
Fr, 12.04. 16:30 0
Fr, 12.04. 16:00 0
Fr, 12.04. 15:30 0
Fr, 12.04. 15:00 0
Fr, 12.04. 14:30 0
Link zu dieser Seite / Seite empfehlen

Das Wetter in ...